Time;durP1;ratioP1;P1;durP2;ratioP2;P2;SDS_P1;SDS_P2;PMS_P1;PMS_P2;Temp;Humidity;BMP_temperature;BMP_pressure;BME280_temperature;BME280_humidity;BME280_pressure;Samples;Min_cycle;Max_cycle;Signal;HPM_P1;HPM_P2
2023/05/10 00:00:54;;;;;;;8.32;7.47;;;;;;;12.83;100.00;100382.25;7698559;18;19999;-67
2023/05/10 00:03:20;;;;;;;10.70;7.97;;;;;;;13.01;100.00;100397.75;7744984;18;19999;-67
2023/05/10 00:05:47;;;;;;;9.65;7.60;;;;;;;13.05;100.00;100401.88;7698644;18;20518;-68
2023/05/10 00:08:14;;;;;;;7.90;7.13;;;;;;;12.64;100.00;100361.56;7741791;18;20003;-67
2023/05/10 00:10:40;;;;;;;8.57;7.72;;;;;;;13.00;100.00;100399.56;7697473;18;19999;-67
2023/05/10 00:13:07;;;;;;;9.60;8.20;;;;;;;12.78;100.00;100361.47;7744129;18;20124;-67
2023/05/10 00:15:34;;;;;;;14.25;8.32;;;;;;;13.05;100.00;100407.13;7697929;18;20526;-67
2023/05/10 00:18:01;;;;;;;9.82;8.43;;;;;;;13.06;100.00;100404.41;7741658;18;20018;-68
2023/05/10 00:20:30;;;;;;;10.00;7.38;;;;;;;12.71;100.00;100341.78;7734520;18;20005;-68
2023/05/10 00:22:56;;;;;;;8.25;7.07;;;;;;;13.01;100.00;100393.34;7745412;18;19990;-68
2023/05/10 00:25:22;;;;;;;8.48;7.75;;;;;;;13.12;100.00;100405.78;7697908;18;20011;-67
2023/05/10 00:27:49;;;;;;;10.90;7.72;;;;;;;13.02;100.00;100376.59;7744004;18;20066;-67
2023/05/10 00:30:16;;;;;;;8.57;7.20;;;;;;;12.99;100.00;100371.53;7734404;18;20003;-68
2023/05/10 00:32:43;;;;;;;7.53;6.80;;;;;;;12.95;100.00;100383.22;7742423;18;20433;-68
2023/05/10 00:35:10;;;;;;;7.95;7.28;;;;;;;12.96;100.00;100374.38;7697798;18;19999;-67
2023/05/10 00:37:36;;;;;;;7.20;6.45;;;;;;;13.16;100.00;100400.19;7745133;18;20014;-67
2023/05/10 00:40:03;;;;;;;7.82;7.03;;;;;;;13.16;100.00;100405.47;7697877;18;20003;-68
2023/05/10 00:42:30;;;;;;;8.73;7.63;;;;;;;13.13;100.00;100402.22;7743986;18;20021;-67
2023/05/10 00:44:56;;;;;;;7.93;6.88;;;;;;;13.14;100.00;100401.25;7697999;18;20057;-68
2023/05/10 00:47:23;;;;;;;8.45;7.22;;;;;;;13.05;100.00;100389.56;7743844;18;20066;-68
2023/05/10 00:49:50;;;;;;;8.20;6.82;;;;;;;13.16;100.00;100400.19;7696958;18;20073;-67
2023/05/10 00:52:16;;;;;;;8.55;7.53;;;;;;;13.01;100.00;100374.06;7740443;18;20078;-67
2023/05/10 00:54:43;;;;;;;8.65;7.65;;;;;;;13.06;100.00;100398.31;7696121;18;20078;-67
2023/05/10 00:57:09;;;;;;;7.57;6.88;;;;;;;12.88;100.00;100385.41;7743727;18;20065;-67
2023/05/10 00:59:36;;;;;;;7.40;6.70;;;;;;;12.91;100.00;100395.75;7695689;18;20621;-66
2023/05/10 01:02:02;;;;;;;7.22;6.45;;;;;;;12.65;100.00;100368.53;7742981;18;20600;-67
2023/05/10 01:04:30;;;;;;;7.82;7.03;;;;;;;12.69;100.00;100380.53;7696094;18;20002;-67
2023/05/10 01:06:57;;;;;;;8.15;7.07;;;;;;;12.80;100.00;100397.41;7744989;18;20069;-67
2023/05/10 01:09:26;;;;;;;6.57;6.00;;;;;;;12.68;100.00;100376.22;7697006;18;19990;-67
2023/05/10 01:11:54;;;;;;;10.23;7.20;;;;;;;12.56;100.00;100369.13;7743992;18;20566;-67
2023/05/10 01:14:21;;;;;;;8.05;7.35;;;;;;;12.80;100.00;100408.78;7695747;18;20003;-67
2023/05/10 01:16:49;;;;;;;7.32;6.45;;;;;;;12.72;100.00;100387.38;7744722;18;20009;-66
2023/05/10 01:19:22;;;;;;;7.45;6.85;;;;;;;12.53;100.00;100370.19;7733405;18;20531;-67
2023/05/10 01:21:59;;;;;;;6.72;6.20;;;;;;;12.55;100.00;100370.09;7745050;18;20061;-67
2023/05/10 01:25:11;;;;;;;7.47;6.82;;;;;;;12.80;100.00;100415.84;7697499;18;19995;-67
2023/05/10 01:28:10;;;;;;;6.75;6.25;;;;;;;12.58;100.00;100401.44;7744656;18;20022;-68
2023/05/10 01:31:02;;;;;;;8.48;6.68;;;;;;;12.72;100.00;100417.19;7698080;18;20480;-67
2023/05/10 01:33:58;;;;;;;6.95;6.30;;;;;;;12.65;100.00;100422.94;7742688;18;20010;-68
2023/05/10 01:36:39;;;;;;;6.43;6.00;;;;;;;12.57;100.00;100419.03;7697937;18;20002;-67
2023/05/10 01:39:15;;;;;;;7.13;6.55;;;;;;;12.67;100.00;100427.19;7743444;18;20000;-67
2023/05/10 01:42:10;;;;;;;6.60;5.95;;;;;;;12.59;100.00;100421.59;7697793;18;20578;-67
2023/05/10 01:44:46;;;;;;;6.63;6.05;;;;;;;12.52;100.00;100405.31;7744074;18;20004;-68
2023/05/10 01:47:20;;;;;;;5.55;5.00;;;;;;;12.45;100.00;100413.72;7697412;18;20018;-68
2023/05/10 01:49:53;;;;;;;15.40;5.85;;;;;;;12.63;100.00;100427.47;7745096;18;19994;-67
2023/05/10 01:52:25;;;;;;;5.43;5.10;;;;;;;12.63;100.00;100423.06;7695156;18;20010;-67
2023/05/10 01:55:01;;;;;;;5.18;4.88;;;;;;;12.59;100.00;100432.13;7743632;18;20002;-67
2023/05/10 01:57:34;;;;;;;8.30;5.32;;;;;;;12.33;100.00;100397.78;7698987;18;19999;-67
2023/05/10 02:00:02;;;;;;;;;;;;;;;12.52;100.00;100426.38;7745240;18;19998;-68
2023/05/10 02:02:33;;;;;;;5.70;5.30;;;;;;;12.28;100.00;100367.44;7696324;18;19945;-67
2023/05/10 02:05:00;;;;;;;6.90;5.72;;;;;;;12.70;100.00;100426.13;7743125;18;20013;-67
2023/05/10 02:07:28;;;;;;;5.97;5.53;;;;;;;12.43;100.00;100381.38;7697135;18;20011;-67
2023/05/10 02:09:55;;;;;;;7.53;5.32;;;;;;;12.51;100.00;100419.44;7744441;18;20731;-67
2023/05/10 02:12:23;;;;;;;5.45;5.15;;;;;;;12.56;100.00;100425.22;7695946;18;20027;-67
2023/05/10 02:14:52;;;;;;;5.50;5.18;;;;;;;12.52;100.00;100422.91;7741044;18;20574;-67
2023/05/10 02:17:20;;;;;;;5.18;4.82;;;;;;;12.47;100.00;100420.59;7697227;18;20058;-67
2023/05/10 02:19:47;;;;;;;5.47;5.18;;;;;;;12.58;100.00;100425.16;7744275;18;19999;-67
2023/05/10 02:22:15;;;;;;;6.32;5.82;;;;;;;12.30;100.00;100394.50;7734468;18;20013;-67
2023/05/10 02:24:44;;;;;;;5.95;5.53;;;;;;;12.66;100.00;100443.06;7744239;18;20077;-67
2023/05/10 02:27:12;;;;;;;5.75;5.35;;;;;;;12.72;100.00;100443.50;7696927;18;19999;-66
2023/05/10 02:29:39;;;;;;;5.10;4.80;;;;;;;12.53;100.00;100403.56;7742537;18;20010;-67
2023/05/10 02:32:06;;;;;;;10.23;5.82;;;;;;;12.54;100.00;100411.34;7696903;18;19999;-68
2023/05/10 02:34:33;;;;;;;6.47;5.97;;;;;;;12.76;100.00;100442.38;7741697;18;20005;-67
2023/05/10 02:37:02;;;;;;;6.32;5.65;;;;;;;12.74;100.00;100443.41;7697431;18;20002;-68
2023/05/10 02:39:31;;;;;;;5.65;5.32;;;;;;;12.63;100.00;100425.69;7741179;18;19994;-68
2023/05/10 02:41:59;;;;;;;6.20;5.70;;;;;;;12.60;100.00;100409.25;7734098;18;20078;-67
2023/05/10 02:44:30;;;;;;;9.05;6.25;;;;;;;12.66;100.00;100427.28;7742771;18;20029;-67
2023/05/10 02:46:57;;;;;;;5.90;5.43;;;;;;;12.74;100.00;100439.00;7734376;18;19999;-67
2023/05/10 02:49:24;;;;;;;5.95;5.45;;;;;;;12.81;100.00;100441.22;7742091;18;20061;-67
2023/05/10 02:51:55;;;;;;;6.28;5.88;;;;;;;12.86;100.00;100439.16;7697468;18;20058;-67
2023/05/10 02:54:28;;;;;;;6.10;5.70;;;;;;;12.69;100.00;100441.09;7741104;18;20009;-67
2023/05/10 02:57:01;;;;;;;6.40;5.93;;;;;;;12.75;100.00;100445.13;7698009;18;20119;-67
2023/05/10 02:59:28;;;;;;;;;;;;;;;12.78;100.00;100444.91;7776550;18;20022;-67
2023/05/10 03:01:54;;;;;;;5.78;5.38;;;;;;;12.73;100.00;100439.94;7698293;18;19917;-68
2023/05/10 03:04:21;;;;;;;6.22;5.82;;;;;;;12.80;100.00;100450.09;7781326;18;20058;-67
2023/05/10 03:06:48;;;;;;;6.75;6.10;;;;;;;12.75;100.00;100453.03;7698072;18;20078;-67
2023/05/10 03:09:15;;;;;;;6.28;5.72;;;;;;;12.71;100.00;100457.63;7744367;18;20051;-67
2023/05/10 03:12:21;;;;;;;5.80;5.45;;;;;;;12.77;100.00;100454.59;7733735;18;20511;-67
2023/05/10 03:15:15;;;;;;;5.95;5.53;;;;;;;12.77;100.00;100451.97;7743956;18;20578;-68
2023/05/10 03:18:21;;;;;;;6.75;5.70;;;;;;;12.73;100.00;100461.03;7696681;18;19991;-68
2023/05/10 03:20:50;;;;;;;5.82;5.38;;;;;;;12.76;100.00;100458.16;7723508;18;20434;-67
2023/05/10 03:23:40;;;;;;;5.45;5.05;;;;;;;12.77;100.00;100451.97;7696476;18;20014;-68
2023/05/10 03:26:07;;;;;;;6.18;5.72;;;;;;;12.63;100.00;100444.13;7743113;18;19995;-68
2023/05/10 03:28:36;;;;;;;7.32;6.53;;;;;;;12.81;100.00;100462.28;7697306;18;20033;-68
2023/05/10 03:31:05;;;;;;;6.63;6.07;;;;;;;12.84;100.00;100464.72;7744979;18;20011;-68
2023/05/10 03:33:32;;;;;;;7.35;6.50;;;;;;;12.76;100.00;100467.88;7696595;18;20147;-68
2023/05/10 03:35:59;;;;;;;6.50;5.93;;;;;;;12.56;100.00;100421.78;7745111;18;20061;-68
2023/05/10 03:38:25;;;;;;;6.65;6.15;;;;;;;12.75;100.00;100453.88;7695959;18;20066;-68
2023/05/10 03:40:55;;;;;;;6.70;6.20;;;;;;;12.85;100.00;100479.56;7746222;18;20065;-67
2023/05/10 03:43:22;;;;;;;6.88;6.28;;;;;;;12.81;100.00;100470.19;7698547;18;19999;-68
2023/05/10 03:45:48;;;;;;;7.20;6.50;;;;;;;12.67;100.00;100444.75;7751175;18;19994;-68
2023/05/10 03:48:15;;;;;;;10.77;6.78;;;;;;;12.87;100.00;100477.69;7701400;18;20576;-68
2023/05/10 03:50:42;;;;;;;9.05;7.40;;;;;;;12.78;100.00;100464.19;7749267;18;19998;-68
2023/05/10 03:53:09;;;;;;;7.88;7.28;;;;;;;12.51;100.00;100416.81;7734987;18;20006;-68
2023/05/10 03:55:36;;;;;;;8.15;7.43;;;;;;;12.92;100.00;100483.50;7744936;18;20589;-68
2023/05/10 03:58:02;;;;;;;9.95;6.80;;;;;;;12.93;100.00;100474.69;7698200;18;20351;-68
2023/05/10 04:00:29;;;;;;;8.23;7.38;;;;;;;12.69;100.00;100445.50;7743999;18;20058;-68
2023/05/10 04:02:56;;;;;;;9.38;7.75;;;;;;;12.84;100.00;100488.44;7696282;18;20061;-68
2023/05/10 04:05:23;;;;;;;7.72;7.03;;;;;;;12.95;100.00;100496.50;7745791;18;20090;-68
2023/05/10 04:07:50;;;;;;;7.30;6.60;;;;;;;12.78;100.00;100464.19;7733980;18;20037;-67
2023/05/10 04:10:17;;;;;;;8.52;7.50;;;;;;;12.94;100.00;100489.53;7743934;18;20003;-71
2023/05/10 04:12:44;;;;;;;14.02;7.82;;;;;;;12.70;100.00;100441.94;7697600;18;20058;-70
2023/05/10 04:15:11;;;;;;;9.20;7.40;;;;;;;13.04;100.00;100487.97;7781041;18;19998;-70
2023/05/10 04:17:37;;;;;;;9.82;8.38;;;;;;;12.85;100.00;100458.50;7697155;18;20523;-69
2023/05/10 04:20:04;;;;;;;12.10;8.45;;;;;;;12.77;100.00;100454.59;7741518;18;20009;-70
2023/05/10 04:22:32;;;;;;;8.05;7.25;;;;;;;13.00;100.00;100488.28;7697018;18;20034;-69
2023/05/10 04:24:58;;;;;;;10.18;8.25;;;;;;;12.97;100.00;100463.00;7744507;18;20578;-69
2023/05/10 04:27:24;;;;;;;10.70;8.38;;;;;;;12.68;100.00;100410.44;7697467;18;20421;-71
2023/05/10 04:29:51;;;;;;;12.15;7.88;;;;;;;13.16;100.00;100481.06;7744031;18;19998;-69
2023/05/10 04:32:17;;;;;;;10.88;8.15;;;;;;;13.13;100.00;100474.19;7697450;18;20007;-70
2023/05/10 04:34:44;;;;;;;12.20;8.65;;;;;;;12.78;100.00;100437.84;7743142;18;19999;-70
2023/05/10 04:37:10;;;;;;;11.68;8.73;;;;;;;13.08;100.00;100475.44;7697163;18;20090;-70
2023/05/10 04:39:37;;;;;;;10.50;9.40;;;;;;;12.72;100.00;100422.44;7742729;18;20026;-70
2023/05/10 04:42:07;;;;;;;16.95;8.68;;;;;;;12.96;100.00;100454.22;7694261;18;20007;-70
2023/05/10 04:44:33;;;;;;;10.38;8.23;;;;;;;13.24;100.00;100485.81;7744515;18;20071;-72
2023/05/10 04:46:59;;;;;;;9.63;8.18;;;;;;;13.29;100.00;100483.69;7698532;18;20005;-70
2023/05/10 04:49:26;;;;;;;8.57;7.47;;;;;;;13.22;100.00;100483.28;7744886;18;20009;-70
2023/05/10 04:51:52;;;;;;;11.00;8.68;;;;;;;12.84;100.00;100422.59;7700835;18;20003;-70
2023/05/10 04:54:19;;;;;;;10.07;9.00;;;;;;;13.03;100.00;100457.31;7741567;18;20011;-70
2023/05/10 04:56:48;;;;;;;17.15;7.75;;;;;;;13.13;100.00;100484.75;7697855;18;20493;-70
2023/05/10 04:59:14;;;;;;;9.02;7.88;;;;;;;13.15;100.00;100488.13;7742553;18;20003;-71
2023/05/10 05:01:41;;;;;;;8.68;7.78;;;;;;;13.17;100.00;100474.84;7697661;18;20015;-70
2023/05/10 05:04:07;;;;;;;8.90;8.10;;;;;;;13.02;100.00;100442.44;7742760;18;20002;-70
2023/05/10 05:06:33;;;;;;;11.43;8.05;;;;;;;13.04;100.00;100451.09;7697103;18;20003;-71
2023/05/10 05:09:00;;;;;;;8.65;7.80;;;;;;;13.49;100.00;100491.16;7744431;18;20404;-71
2023/05/10 05:11:26;;;;;;;8.45;7.65;;;;;;;13.50;100.00;100494.63;7733315;18;20338;-71
2023/05/10 05:13:53;;;;;;;12.13;7.20;;;;;;;13.24;100.00;100460.28;7741791;18;20006;-71
2023/05/10 05:16:19;;;;;;;12.35;7.60;;;;;;;13.01;100.00;100422.34;7695925;18;20096;-70
2023/05/10 05:18:46;;;;;;;8.55;7.43;;;;;;;13.45;100.00;100486.19;7744356;18;20006;-70
2023/05/10 05:21:17;;;;;;;8.32;7.53;;;;;;;13.43;100.00;100501.25;7697596;18;20580;-71
2023/05/10 05:23:43;;;;;;;10.13;7.57;;;;;;;13.27;100.00;100485.59;7743861;18;20692;-71
2023/05/10 05:26:10;;;;;;;9.85;6.35;;;;;;;13.25;100.00;100511.19;7701460;18;20034;-71
2023/05/10 05:28:37;;;;;;;7.90;7.15;;;;;;;13.26;100.00;100502.38;7746559;18;20005;-70
2023/05/10 05:31:05;;;;;;;8.00;7.30;;;;;;;13.02;100.00;100450.34;7697861;18;20015;-70
2023/05/10 05:33:32;;;;;;;9.10;7.18;;;;;;;13.41;100.00;100514.56;7742668;18;20072;-70
2023/05/10 05:36:01;;;;;;;7.65;7.05;;;;;;;13.04;100.00;100448.47;7697917;18;20132;-69
2023/05/10 05:38:27;;;;;;;12.52;8.20;;;;;;;13.03;100.00;100473.13;7742760;18;20010;-70
2023/05/10 05:40:54;;;;;;;8.15;7.35;;;;;;;12.72;100.00;100446.16;7734816;18;20058;-70
2023/05/10 05:43:20;;;;;;;7.18;6.55;;;;;;;13.15;100.00;100529.44;7743324;18;20065;-70
2023/05/10 05:45:47;;;;;;;7.88;7.28;;;;;;;12.88;100.00;100458.31;7697337;18;20007;-70
2023/05/10 05:48:16;;;;;;;7.82;7.15;;;;;;;13.06;100.00;100469.44;7741972;18;20011;-70
2023/05/10 05:50:42;;;;;;;8.88;7.10;;;;;;;13.42;100.00;100515.41;7733289;18;20023;-70
2023/05/10 05:53:08;;;;;;;12.63;7.68;;;;;;;13.24;100.00;100523.53;7744593;18;20025;-70
2023/05/10 05:55:35;;;;;;;8.27;7.53;;;;;;;13.09;100.00;100499.06;7693278;18;20062;-70
2023/05/10 05:58:02;;;;;;;11.20;7.65;;;;;;;13.06;100.00;100527.41;7740630;18;20068;-70
2023/05/10 06:00:28;;;;;;;11.93;7.90;;;;;;;12.90;100.00;100482.78;7690337;18;19999;-70
2023/05/10 06:02:55;;;;;;;8.55;7.35;;;;;;;13.28;100.00;100534.72;7741256;18;20639;-70
2023/05/10 06:05:21;;;;;;;11.35;8.95;;;;;;;13.20;100.00;100534.41;7696598;18;20003;-70
2023/05/10 06:07:48;;;;;;;19.33;8.13;;;;;;;11.83;100.00;100353.63;7742507;18;20521;-70
2023/05/10 06:10:15;;;;;;;8.98;8.02;;;;;;;12.67;100.00;100478.97;7695570;18;20370;-70
2023/05/10 06:12:41;;;;;;;9.85;8.00;;;;;;;13.04;100.00;100553.84;7741449;18;20003;-69
2023/05/10 06:15:09;;;;;;;13.23;7.80;;;;;;;12.75;100.00;100510.97;7731758;18;19998;-70
2023/05/10 06:17:35;;;;;;;34.90;8.35;;;;;;;12.85;100.00;100532.25;7742991;18;20062;-70
2023/05/10 06:20:02;;;;;;;11.45;7.43;;;;;;;12.31;100.00;100433.03;7695718;18;20015;-70
2023/05/10 06:22:28;;;;;;;8.52;7.63;;;;;;;12.50;100.00;100469.53;7741573;18;20624;-70
2023/05/10 06:24:55;;;;;;;13.07;8.43;;;;;;;12.91;100.00;100542.38;7696471;18;20019;-71
2023/05/10 06:27:21;;;;;;;13.15;9.05;;;;;;;12.88;100.00;100566.31;7742667;18;20087;-71
2023/05/10 06:29:50;;;;;;;11.20;8.68;;;;;;;12.93;100.00;100567.72;7732090;18;20003;-71
2023/05/10 06:32:24;;;;;;;9.18;7.93;;;;;;;12.88;100.00;100575.03;7741863;18;20010;-71
2023/05/10 06:34:51;;;;;;;16.42;9.13;;;;;;;12.48;100.00;100513.53;7695899;18;20478;-71
2023/05/10 06:37:20;;;;;;;8.77;7.93;;;;;;;12.76;100.00;100563.50;7741700;18;20005;-71
2023/05/10 06:39:46;;;;;;;13.77;7.47;;;;;;;12.63;100.00;100554.72;7694185;18;20026;-71
2023/05/10 06:42:12;;;;;;;9.10;7.80;;;;;;;12.80;100.00;100571.22;7741417;18;20455;-71
2023/05/10 06:44:39;;;;;;;11.00;8.40;;;;;;;12.54;100.00;100526.31;7694931;18;20026;-71
2023/05/10 06:47:05;;;;;;;10.52;7.82;;;;;;;13.03;100.00;100575.00;7741873;18;20010;-71
2023/05/10 06:49:32;;;;;;;8.13;7.28;;;;;;;13.31;100.00;100582.00;7694931;18;19998;-71
2023/05/10 06:51:58;;;;;;;11.88;8.13;;;;;;;13.72;100.00;100592.44;7741767;18;20620;-71
2023/05/10 06:54:24;;;;;;;8.93;7.50;;;;;;;13.67;100.00;100596.31;7694175;18;20022;-71
2023/05/10 06:56:51;;;;;;;11.73;8.82;;;;;;;13.73;100.00;100585.34;7739627;18;20003;-70
2023/05/10 06:59:19;;;;;;;10.02;7.75;;;;;;;13.73;100.00;100556.34;7692910;18;20570;-70
2023/05/10 07:01:45;;;;;;;11.13;8.55;;;;;;;14.14;100.00;100587.81;7778960;18;20014;-70
2023/05/10 07:04:12;;;;;;;11.23;8.27;;;;;;;13.93;100.00;100590.16;7697672;18;19999;-70
2023/05/10 07:06:39;;;;;;;9.20;8.30;;;;;;;12.31;100.00;100328.63;7743995;18;20066;-71
2023/05/10 07:09:05;;;;;;;9.55;7.88;;;;;;;13.47;100.00;100508.88;7698109;18;19995;-71
2023/05/10 07:11:32;;;;;;;11.80;8.45;;;;;;;13.99;100.00;100580.94;7743471;18;20512;-70
2023/05/10 07:13:58;;;;;;;9.18;7.28;;;;;;;13.77;100.00;100582.44;7696597;18;20062;-70
2023/05/10 07:16:24;;;;;;;9.88;8.93;;;;;;;13.99;100.00;100596.78;7742179;18;20011;-70
2023/05/10 07:18:52;;;;;;;11.32;8.13;;;;;;;14.08;100.00;100593.53;7695817;18;19999;-71
2023/05/10 07:21:19;;;;;;;13.25;8.00;;;;;;;13.53;100.00;100519.00;7744068;18;20002;-71
2023/05/10 07:23:45;;;;;;;10.18;7.97;;;;;;;14.01;100.00;100588.78;7696467;18;20062;-71
2023/05/10 07:26:12;;;;;;;17.02;8.50;;;;;;;14.32;100.00;100596.28;7744000;18;20014;-71
2023/05/10 07:28:38;;;;;;;12.15;8.57;;;;;;;14.39;100.00;100535.13;7696397;18;20454;-70
2023/05/10 07:31:05;;;;;;;11.60;7.07;;;;;;;14.66;100.00;100530.53;7743829;18;20006;-70
2023/05/10 07:33:32;;;;;;;11.00;8.73;;;;;;;14.02;100.00;100491.03;7732659;18;19994;-70
2023/05/10 07:35:58;;;;;;;9.45;8.13;;;;;;;14.65;100.00;100570.25;7741424;18;20450;-71
2023/05/10 07:38:25;;;;;;;9.60;8.30;;;;;;;14.73;100.00;100584.63;7696762;18;20496;-71
2023/05/10 07:40:51;;;;;;;12.73;7.95;;;;;;;14.64;100.00;100582.63;7742228;18;20072;-71
2023/05/10 07:43:17;;;;;;;9.57;8.15;;;;;;;14.31;100.00;100535.66;7696967;18;20050;-70
2023/05/10 07:45:44;;;;;;;11.57;8.57;;;;;;;14.12;100.00;100531.66;7743981;18;20002;-71
2023/05/10 07:48:10;;;;;;;10.73;7.63;;;;;;;14.08;100.00;100582.97;7697663;18;20023;-70
2023/05/10 07:50:37;;;;;;;8.45;7.55;;;;;;;13.39;100.00;100476.91;7745079;18;20179;-71
2023/05/10 07:53:03;;;;;;;13.98;8.77;;;;;;;13.92;100.00;100590.25;7697907;18;19998;-70
2023/05/10 07:55:30;;;;;;;10.50;7.93;;;;;;;13.91;100.00;100594.69;7744081;18;20022;-70
2023/05/10 07:57:56;;;;;;;12.02;8.38;;;;;;;13.84;100.00;100593.41;7696291;18;20132;-71
2023/05/10 08:00:23;;;;;;;11.57;8.23;;;;;;;13.68;100.00;100595.38;7744515;18;19998;-71
2023/05/10 08:02:49;;;;;;;9.35;7.40;;;;;;;13.84;100.00;100587.28;7697137;18;20018;-71
2023/05/10 08:05:16;;;;;;;10.68;8.63;;;;;;;13.85;100.00;100567.88;7744628;18;20522;-71
2023/05/10 08:07:43;;;;;;;9.25;8.35;;;;;;;14.24;100.00;100605.69;7696146;18;19999;-71
2023/05/10 08:10:10;;;;;;;15.15;9.27;;;;;;;14.06;100.00;100589.31;7741229;18;20061;-71
2023/05/10 08:12:38;;;;;;;15.52;9.93;;;;;;;14.30;100.00;100582.34;7694218;18;19999;-71
2023/05/10 08:15:05;;;;;;;11.75;8.93;;;;;;;14.22;100.00;100562.72;7780995;18;19998;-70
2023/05/10 08:17:31;;;;;;;12.27;8.95;;;;;;;14.61;100.00;100597.84;7696534;18;19998;-71
2023/05/10 08:19:58;;;;;;;16.20;9.82;;;;;;;14.91;100.00;100598.31;7742329;18;19994;-71
2023/05/10 08:22:24;;;;;;;18.23;10.23;;;;;;;15.18;100.00;100597.25;7695165;18;20058;-70
2023/05/10 08:24:50;;;;;;;15.18;10.18;;;;;;;15.16;100.00;100591.25;7744189;18;20032;-71
2023/05/10 08:27:17;;;;;;;14.93;9.52;;;;;;;15.47;100.00;100603.03;7698048;18;20019;-71
2023/05/10 08:29:43;;;;;;;12.70;10.18;;;;;;;15.17;100.00;100524.19;7742007;18;20010;-70
2023/05/10 08:32:16;;;;;;;13.00;9.48;;;;;;;15.98;100.00;100588.69;7700234;18;19999;-70
2023/05/10 08:34:43;;;;;;;13.55;10.07;;;;;;;16.01;100.00;100585.78;7745060;18;20026;-70
2023/05/10 08:37:12;;;;;;;18.80;9.70;;;;;;;15.78;100.00;100576.97;7697520;18;19995;-70
2023/05/10 08:39:39;;;;;;;13.10;9.88;;;;;;;15.41;100.00;100521.50;7742379;18;20014;-71
2023/05/10 08:42:06;;;;;;;20.23;9.75;;;;;;;15.50;100.00;100536.69;7697522;18;20250;-70
2023/05/10 08:44:35;;;;;;;19.10;10.75;;;;;;;15.50;100.00;100575.53;7743731;18;20010;-70
2023/05/10 08:47:05;;;;;;;15.13;9.95;;;;;;;15.39;100.00;100573.66;7699099;18;19999;-70
2023/05/10 08:49:33;;;;;;;14.63;9.18;;;;;;;15.11;100.00;100544.00;7743604;18;20002;-70
2023/05/10 08:52:03;;;;;;;20.85;9.65;;;;;;;15.26;100.00;100578.19;7733654;18;20006;-72
2023/05/10 08:54:31;;;;;;;15.18;9.32;;;;;;;14.92;100.00;100519.88;7740750;18;20014;-72
2023/05/10 08:56:58;;;;;;;13.90;8.98;;;;;;;15.22;100.00;100553.78;7697344;18;20009;-72
2023/05/10 08:59:25;;;;;;;15.27;9.05;;;;;;;14.68;100.00;100490.81;7741724;18;20077;-72
2023/05/10 09:01:53;;;;;;;9.73;8.25;;;;;;;14.76;100.00;100502.50;7733367;18;20007;-71
2023/05/10 09:04:20;;;;;;;10.77;8.63;;;;;;;14.44;100.00;100490.75;7743808;18;20050;-71
2023/05/10 09:06:47;;;;;;;15.50;9.65;;;;;;;13.64;100.00;100351.31;7732812;18;20665;-76
2023/05/10 09:09:15;;;;;;;23.83;8.93;;;;;;;14.83;100.00;100544.31;7743037;18;20099;-71
2023/05/10 09:11:43;;;;;;;12.80;8.80;;;;;;;15.19;100.00;100555.81;7694448;18;20014;-76
2023/05/10 09:14:12;;;;;;;16.02;10.00;;;;;;;15.46;100.00;100601.34;7742220;18;20010;-70
2023/05/10 09:16:39;;;;;;;14.55;9.65;;;;;;;14.76;100.00;100526.28;7693862;18;20003;-72
2023/05/10 09:19:08;;;;;;;15.65;9.18;;;;;;;14.95;100.00;100583.94;7743569;18;20018;-69
2023/05/10 09:21:37;;;;;;;15.65;10.77;;;;;;;14.30;100.00;100521.63;7696263;18;20020;-69
2023/05/10 09:24:08;;;;;;;17.48;9.30;;;;;;;14.75;100.00;100595.06;7741462;18;20383;-68
2023/05/10 09:26:35;;;;;;;16.02;10.48;;;;;;;14.25;100.00;100517.59;7696892;18;19995;-68
2023/05/10 09:29:02;;;;;;;15.30;9.82;;;;;;;14.23;100.00;100543.28;7743596;18;20015;-68
2023/05/10 09:32:01;;;;;;;15.68;9.30;;;;;;;14.50;100.00;100609.97;7697991;18;20010;-68
2023/05/10 09:34:32;;;;;;;18.15;9.73;;;;;;;14.46;100.00;100618.25;7703548;18;20143;-69
2023/05/10 09:37:03;;;;;;;16.35;10.23;;;;;;;14.56;100.00;100622.78;7743690;18;20029;-69
2023/05/10 09:39:33;;;;;;;13.95;8.68;;;;;;;14.66;100.00;100623.00;7788797;18;20049;-68
2023/05/10 09:42:03;;;;;;;15.63;9.27;;;;;;;14.89;100.00;100624.00;7743255;18;20025;-68
2023/05/10 09:44:31;;;;;;;18.15;9.30;;;;;;;14.34;100.00;100538.94;7789828;18;20064;-68
2023/05/10 09:46:58;;;;;;;12.88;9.68;;;;;;;14.84;100.00;100602.34;7742967;18;20010;-68
2023/05/10 09:49:24;;;;;;;16.00;10.15;;;;;;;15.00;100.00;100615.31;7748431;18;20006;-68
2023/05/10 09:52:05;;;;;;;10.63;8.65;;;;;;;14.56;100.00;100553.28;7742414;18;19994;-68
2023/05/10 09:54:32;;;;;;;12.05;9.05;;;;;;;15.06;100.00;100622.78;7788746;18;20126;-69
2023/05/10 09:56:59;;;;;;;10.30;8.98;;;;;;;15.09;100.00;100616.44;7702331;18;20057;-69
2023/05/10 09:59:27;;;;;;;13.13;9.38;;;;;;;15.06;100.00;100585.78;7788215;18;20099;-68
2023/05/10 10:01:59;;;;;;;11.70;8.13;;;;;;;15.43;100.00;100611.31;7744899;18;20009;-68
2023/05/10 10:04:26;;;;;;;11.45;8.45;;;;;;;15.89;100.00;100616.66;7791244;18;20490;-69
2023/05/10 10:07:04;;;;;;;11.70;8.40;;;;;;;15.45;95.14;100564.44;7743186;18;20727;-68
2023/05/10 10:09:31;;;;;;;9.90;8.60;;;;;;;15.62;94.38;100594.94;7788852;18;20008;-68
2023/05/10 10:11:59;;;;;;;10.95;8.13;;;;;;;15.27;94.21;100561.38;7743195;18;20174;-68
2023/05/10 10:14:26;;;;;;;11.63;8.70;;;;;;;15.47;94.30;100579.22;7790066;18;19998;-69
2023/05/10 10:16:53;;;;;;;19.30;9.57;;;;;;;15.91;93.54;100601.53;7742717;18;20014;-69
2023/05/10 10:19:36;;;;;;;10.52;8.05;;;;;;;16.01;91.26;100584.94;7789903;18;20061;-69
2023/05/10 10:22:03;;;;;;;11.93;7.97;;;;;;;16.04;91.75;100587.38;7744085;18;20007;-69
2023/05/10 10:24:30;;;;;;;11.18;9.10;;;;;;;16.44;90.26;100584.28;7790162;18;19994;-69
2023/05/10 10:27:05;;;;;;;9.32;8.40;;;;;;;16.67;86.20;100564.72;7743257;18;20014;-69
2023/05/10 10:29:41;;;;;;;14.13;8.15;;;;;;;16.67;82.14;100506.44;7790665;18;20002;-69
2023/05/10 10:32:37;;;;;;;9.23;8.20;;;;;;;16.69;80.52;100507.16;7743840;18;20027;-69
2023/05/10 10:35:04;;;;;;;9.45;8.10;;;;;;;16.45;81.03;100504.66;7789035;18;19998;-69
2023/05/10 10:37:50;;;;;;;11.50;7.75;;;;;;;16.00;81.77;100498.56;7742768;18;20002;-69
2023/05/10 10:40:27;;;;;;;9.80;8.10;;;;;;;16.17;85.30;100542.25;7787873;18;19998;-68
2023/05/10 10:42:54;;;;;;;17.77;8.70;;;;;;;16.62;86.57;100564.25;7740001;18;20002;-69
2023/05/10 10:45:22;;;;;;;11.15;8.13;;;;;;;16.83;84.54;100553.75;7787286;18;20005;-67
2023/05/10 10:47:49;;;;;;;10.50;7.97;;;;;;;16.48;83.25;100519.50;7741173;18;19999;-67
2023/05/10 10:50:16;;;;;;;9.82;7.82;;;;;;;16.21;82.37;100491.56;7747545;18;20001;-70
2023/05/10 10:52:43;;;;;;;10.48;7.93;;;;;;;16.33;83.05;100505.66;7740700;18;20100;-70
2023/05/10 10:55:17;;;;;;;10.60;7.13;;;;;;;16.22;82.78;100458.00;7747749;18;19998;-70
2023/05/10 10:57:48;;;;;;;10.30;7.10;;;;;;;16.46;81.65;100469.28;7741795;18;20007;-70
2023/05/10 11:00:20;;;;;;;12.38;8.18;;;;;;;16.08;81.87;100396.41;7786311;18;20001;-71
2023/05/10 11:03:20;;;;;;;8.40;7.60;;;;;;;17.34;81.33;100521.28;7741049;18;20053;-70
2023/05/10 11:05:52;;;;;;;8.82;7.93;;;;;;;17.29;79.26;100474.91;7662733;18;20002;-71
2023/05/10 11:08:32;;;;;;;8.02;7.20;;;;;;;17.40;80.28;100529.69;7736755;18;20013;-70
2023/05/10 11:11:07;;;;;;;9.60;7.65;;;;;;;16.74;78.69;100473.19;7788493;18;20015;-70
2023/05/10 11:13:43;;;;;;;9.02;7.65;;;;;;;16.48;80.19;100485.88;7739654;18;19998;-70
2023/05/10 11:16:23;;;;;;;7.95;6.97;;;;;;;16.53;81.29;100494.28;7791893;18;20025;-70
2023/05/10 11:19:02;;;;;;;8.23;7.43;;;;;;;16.52;80.84;100446.75;7742673;18;20544;-70
2023/05/10 11:21:33;;;;;;;9.27;7.65;;;;;;;16.51;80.82;100479.50;7790478;18;20745;-70
2023/05/10 11:24:05;;;;;;;10.68;7.68;;;;;;;16.41;82.09;100500.56;7741408;18;20013;-70